Time;durP1;ratioP1;P1;durP2;ratioP2;P2;SDS_P1;SDS_P2;PMS_P1;PMS_P2;Temp;Humidity;BMP_temperature;BMP_pressure;BME280_temperature;BME280_humidity;BME280_pressure;Samples;Min_cycle;Max_cycle;Signal;HPM_P1;HPM_P2
2021/03/08 00:01:09;;;;;;;9.80;8.33;;;;;;;1.27;83.68;100761.59;639761;221;23754;-75
2021/03/08 00:03:37;;;;;;;13.78;9.93;;;;;;;1.28;82.84;100756.84;632890;221;32692;-75
2021/03/08 00:06:05;;;;;;;10.97;8.80;;;;;;;1.30;82.27;100754.20;643175;221;23772;-75
2021/03/08 00:08:33;;;;;;;10.15;8.88;;;;;;;1.42;82.44;100758.30;641461;221;32770;-75
2021/03/08 00:11:01;;;;;;;10.30;8.00;;;;;;;1.36;82.34;100754.72;656467;217;23719;-75
2021/03/08 00:13:29;;;;;;;11.08;8.50;;;;;;;1.44;81.61;100750.53;652003;217;32526;-75
2021/03/08 00:15:57;;;;;;;9.20;8.13;;;;;;;1.39;81.49;100735.81;642694;221;23771;-75
2021/03/08 00:18:25;;;;;;;11.12;8.48;;;;;;;1.47;80.89;100743.52;635105;222;32710;-75
2021/03/08 00:20:53;;;;;;;9.90;7.23;;;;;;;1.39;80.71;100746.88;652084;217;23742;-75
2021/03/08 00:23:20;;;;;;;9.65;7.40;;;;;;;1.42;80.90;100749.33;633417;222;32732;-75
2021/03/08 00:25:48;;;;;;;14.20;7.70;;;;;;;1.45;80.24;100742.77;643944;221;23799;-75
2021/03/08 00:28:16;;;;;;;9.70;7.58;;;;;;;1.45;79.60;100736.36;650229;217;32796;-75
2021/03/08 00:30:44;;;;;;;11.27;7.17;;;;;;;1.26;80.47;100734.73;655245;217;24963;-75
2021/03/08 00:33:12;;;;;;;8.80;7.50;;;;;;;1.26;81.26;100744.98;655555;217;32589;-75
2021/03/08 00:35:40;;;;;;;12.37;8.10;;;;;;;1.11;81.19;100744.80;642370;221;23793;-75
2021/03/08 00:38:08;;;;;;;7.90;7.10;;;;;;;1.17;81.81;100746.27;639655;221;32694;-75
2021/03/08 00:40:36;;;;;;;7.80;7.00;;;;;;;1.15;80.86;100753.19;646633;220;26951;-75
2021/03/08 00:43:04;;;;;;;9.40;7.10;;;;;;;1.19;81.48;100746.56;652591;215;43245;-75
2021/03/08 00:45:31;;;;;;;8.33;7.27;;;;;;;1.19;81.11;100752.14;663469;216;23746;-75
2021/03/08 00:47:59;;;;;;;10.70;7.83;;;;;;;1.20;80.96;100749.95;649706;217;32613;-75
2021/03/08 00:50:27;;;;;;;8.53;7.00;;;;;;;1.19;81.05;100747.84;655494;217;23782;-75
2021/03/08 00:52:55;;;;;;;7.60;6.80;;;;;;;1.23;80.33;100742.57;648808;216;32614;-75
2021/03/08 00:55:23;;;;;;;8.07;6.70;;;;;;;1.22;80.63;100748.14;658776;216;23756;-75
2021/03/08 00:57:51;;;;;;;9.63;7.17;;;;;;;1.23;80.15;100741.29;648009;216;32526;-75
2021/03/08 01:00:20;;;;;;;10.80;7.40;;;;;;;1.13;80.66;100737.90;659927;217;23719;-75
2021/03/08 01:02:48;;;;;;;9.40;7.08;;;;;;;1.22;80.41;100743.48;637045;221;32928;-75
2021/03/08 01:05:16;;;;;;;10.90;7.30;;;;;;;1.18;80.10;100730.81;652953;217;23729;-75
2021/03/08 01:07:44;;;;;;;9.25;7.70;;;;;;;1.16;80.71;100741.59;644323;221;32566;-75
2021/03/08 01:10:13;;;;;;;8.13;6.93;;;;;;;0.97;80.87;100740.77;651219;221;23738;-75
2021/03/08 01:12:42;;;;;;;12.45;6.92;;;;;;;1.10;80.99;100743.14;638296;221;32668;-75
2021/03/08 01:15:11;;;;;;;9.77;7.43;;;;;;;1.07;81.19;100741.19;654133;217;23820;-75
2021/03/08 01:17:39;;;;;;;8.75;6.83;;;;;;;1.09;79.89;100736.36;643512;221;32874;-75
2021/03/08 01:20:08;;;;;;;9.90;6.97;;;;;;;1.01;80.94;100737.64;647246;221;23766;-75
2021/03/08 01:22:36;;;;;;;9.85;7.37;;;;;;;1.00;81.31;100744.50;653011;216;32598;-75
2021/03/08 01:25:07;;;;;;;7.40;6.30;;;;;;;0.85;81.57;100749.88;650875;217;23769;-76
2021/03/08 01:27:35;;;;;;;10.18;7.10;;;;;;;0.91;81.47;100744.91;632970;221;44037;-75
2021/03/08 01:30:05;;;;;;;7.43;6.63;;;;;;;0.90;81.40;100740.69;651479;220;23730;-75
2021/03/08 01:32:33;;;;;;;8.70;7.33;;;;;;;0.93;80.44;100735.42;634608;222;32653;-75
2021/03/08 01:35:01;;;;;;;9.15;6.95;;;;;;;0.87;81.27;100735.27;650656;217;32523;-75
2021/03/08 01:37:29;;;;;;;8.27;7.47;;;;;;;0.77;81.36;100732.73;656519;217;23740;-75
2021/03/08 01:39:57;;;;;;;9.98;6.95;;;;;;;0.88;81.16;100736.92;651116;216;43446;-75
2021/03/08 01:42:25;;;;;;;10.50;6.67;;;;;;;0.85;80.99;100733.69;648898;221;23732;-75
2021/03/08 01:44:53;;;;;;;7.28;6.42;;;;;;;0.90;81.49;100725.33;650203;218;32521;-75
2021/03/08 01:47:20;;;;;;;8.17;6.70;;;;;;;0.79;81.72;100722.42;649781;217;23783;-75
2021/03/08 01:49:48;;;;;;;7.65;6.85;;;;;;;0.78;82.01;100725.89;648303;217;32520;-75
2021/03/08 01:52:16;;;;;;;9.15;6.95;;;;;;;0.87;82.40;100730.59;644082;219;32555;-75
2021/03/08 01:54:44;;;;;;;8.90;7.30;;;;;;;0.95;81.54;100727.22;642602;220;32723;-75
2021/03/08 01:57:12;;;;;;;8.10;7.23;;;;;;;0.83;81.38;100729.05;656586;216;23724;-75
2021/03/08 01:59:40;;;;;;;9.65;7.40;;;;;;;0.85;82.00;100728.56;650674;216;32663;-76
2021/03/08 02:02:08;;;;;;;8.40;6.97;;;;;;;0.73;82.25;100734.23;652617;216;23726;-75
2021/03/08 02:04:36;;;;;;;9.63;7.40;;;;;;;0.73;82.68;100739.36;642139;221;32531;-75
2021/03/08 02:07:04;;;;;;;10.05;7.95;;;;;;;0.73;82.69;100731.68;633726;221;32658;-75
2021/03/08 02:09:32;;;;;;;6.93;6.20;;;;;;;0.61;83.94;100739.91;653589;219;26887;-75
2021/03/08 02:12:02;;;;;;;9.45;7.72;;;;;;;0.75;83.25;100740.95;647926;217;32601;-75
2021/03/08 02:14:38;;;;;;;11.07;8.00;;;;;;;0.84;83.00;100742.23;649855;217;33077;-75
2021/03/08 02:17:06;;;;;;;8.65;7.70;;;;;;;0.95;82.15;100731.05;654054;216;32554;-76
2021/03/08 02:20:02;;;;;;;10.83;8.03;;;;;;;0.64;83.56;100733.36;640560;221;23761;-75
2021/03/08 02:22:39;;;;;;;11.43;7.92;;;;;;;0.73;84.19;100732.96;631707;219;32587;-76
2021/03/08 02:25:17;;;;;;;9.65;7.50;;;;;;;0.73;83.44;100727.84;637672;221;32702;-76
2021/03/08 02:28:03;;;;;;;9.53;8.07;;;;;;;0.43;84.61;100730.88;639822;222;26989;-76
2021/03/08 02:30:36;;;;;;;17.10;8.60;;;;;;;0.39;84.35;100733.17;650290;216;25112;-75
2021/03/08 02:33:05;;;;;;;10.05;7.70;;;;;;;0.45;84.29;100731.64;636722;221;32788;-75
2021/03/08 02:35:33;;;;;;;11.87;8.20;;;;;;;0.27;84.82;100736.27;654902;217;24963;-75
2021/03/08 02:38:00;;;;;;;10.58;8.05;;;;;;;0.44;84.58;100721.02;633848;221;32703;-76
2021/03/08 02:40:30;;;;;;;8.77;7.00;;;;;;;0.26;84.60;100719.26;642678;221;23767;-76
2021/03/08 02:42:57;;;;;;;10.65;8.28;;;;;;;0.39;84.05;100719.10;644415;217;32843;-76
2021/03/08 02:45:25;;;;;;;12.67;7.43;;;;;;;0.28;85.21;100723.44;641095;221;23778;-75
2021/03/08 02:47:53;;;;;;;9.68;8.20;;;;;;;0.39;84.65;100720.38;653404;217;32833;-76
2021/03/08 02:50:21;;;;;;;22.33;7.67;;;;;;;0.22;85.39;100719.84;640041;221;23787;-75
2021/03/08 02:52:50;;;;;;;12.30;8.30;;;;;;;0.40;84.84;100722.03;647505;217;32602;-75
2021/03/08 02:55:18;;;;;;;9.37;7.67;;;;;;;0.23;84.63;100721.51;637761;221;25942;-76
2021/03/08 02:57:46;;;;;;;9.60;8.60;;;;;;;0.33;84.99;100725.78;633975;221;32884;-76
2021/03/08 03:00:15;;;;;;;9.40;7.90;;;;;;;0.20;85.19;100725.93;655622;217;23733;-76
2021/03/08 03:02:45;;;;;;;10.18;8.80;;;;;;;0.36;84.60;100721.80;647300;217;32560;-75
2021/03/08 03:05:12;;;;;;;9.50;7.93;;;;;;;0.24;84.43;100717.22;644576;218;24895;-76
2021/03/08 03:07:41;;;;;;;9.75;8.00;;;;;;;0.44;83.90;100713.35;638580;220;32704;-75
2021/03/08 03:10:10;;;;;;;8.73;7.60;;;;;;;0.08;84.80;100726.01;657270;217;23724;-75
2021/03/08 03:12:38;;;;;;;11.80;8.75;;;;;;;0.43;83.97;100719.37;647322;216;32508;-75
2021/03/08 03:15:07;;;;;;;11.10;8.23;;;;;;;0.23;85.38;100730.91;661860;216;23730;-75
2021/03/08 03:17:35;;;;;;;9.90;8.90;;;;;;;0.05;86.78;100744.05;640644;220;32844;-75
2021/03/08 03:20:04;;;;;;;11.15;9.20;;;;;;;0.17;86.34;100750.37;646174;216;32645;-75
2021/03/08 03:22:31;;;;;;;8.80;7.90;;;;;;;-0.06;87.34;100752.61;640791;221;23763;-75
2021/03/08 03:24:59;;;;;;;10.13;8.80;;;;;;;0.13;86.56;100750.92;636107;221;33128;-75
2021/03/08 03:27:27;;;;;;;12.70;9.38;;;;;;;0.22;86.20;100744.14;637071;221;33030;-75
2021/03/08 03:29:55;;;;;;;9.70;8.17;;;;;;;0.05;86.65;100745.77;639236;222;23763;-75
2021/03/08 03:32:23;;;;;;;11.08;9.23;;;;;;;0.05;85.52;100744.49;642247;222;32707;-75
2021/03/08 03:34:51;;;;;;;15.20;9.20;;;;;;;-0.25;87.04;100753.83;655423;217;24015;-76
2021/03/08 03:37:19;;;;;;;11.85;9.88;;;;;;;-0.01;86.84;100755.79;648105;217;32679;-76
2021/03/08 03:39:48;;;;;;;10.77;9.30;;;;;;;-0.27;87.44;100754.80;651320;217;23748;-75
2021/03/08 03:42:16;;;;;;;11.57;9.90;;;;;;;-0.06;86.95;100759.00;644929;221;32542;-75
2021/03/08 03:44:44;;;;;;;12.05;9.83;;;;;;;0.01;86.21;100753.20;641996;221;33059;-75
2021/03/08 03:47:12;;;;;;;10.13;7.67;;;;;;;-0.26;86.63;100759.84;647614;221;23785;-75
2021/03/08 03:49:40;;;;;;;10.75;8.90;;;;;;;-0.15;86.47;100753.81;648607;217;32803;-75
2021/03/08 03:52:08;;;;;;;11.22;8.88;;;;;;;0.10;84.69;100754.06;636609;222;32711;-76
2021/03/08 03:54:36;;;;;;;9.57;8.57;;;;;;;-0.38;85.88;100752.22;657545;217;23729;-75
2021/03/08 03:57:04;;;;;;;11.95;8.80;;;;;;;-0.25;86.20;100755.11;635909;221;32724;-75
2021/03/08 03:59:34;;;;;;;11.25;10.05;;;;;;;-0.58;87.51;100767.94;642036;221;32722;-76
2021/03/08 04:02:02;;;;;;;12.00;9.00;;;;;;;-0.53;88.94;100777.55;639092;221;28295;-75
2021/03/08 04:04:31;;;;;;;12.35;9.88;;;;;;;-0.45;89.06;100780.62;643839;220;32920;-76
2021/03/08 04:06:59;;;;;;;13.30;9.75;;;;;;;-0.17;87.79;100773.50;638396;221;32911;-75
2021/03/08 04:09:27;;;;;;;13.10;8.93;;;;;;;-0.30;87.78;100776.99;640723;221;23760;-76
2021/03/08 04:11:55;;;;;;;11.12;9.13;;;;;;;-0.06;86.15;100770.50;647931;218;32584;-75
2021/03/08 04:14:23;;;;;;;11.12;9.33;;;;;;;-0.19;86.63;100768.90;648424;217;32612;-75
2021/03/08 04:16:51;;;;;;;9.90;8.37;;;;;;;-0.42;87.46;100769.02;663033;214;23779;-75
2021/03/08 04:19:20;;;;;;;12.93;9.40;;;;;;;-0.22;86.73;100779.70;650801;216;32816;-75
2021/03/08 04:21:48;;;;;;;11.75;9.90;;;;;;;-0.06;86.41;100775.16;650093;216;32558;-76
2021/03/08 04:24:16;;;;;;;15.70;8.73;;;;;;;-0.44;86.93;100779.72;645436;220;23761;-76
2021/03/08 04:26:44;;;;;;;13.83;9.00;;;;;;;-0.09;86.00;100780.41;639248;221;33019;-75
2021/03/08 04:29:12;;;;;;;10.72;9.00;;;;;;;-0.04;85.49;100777.66;646893;217;32570;-75
2021/03/08 04:31:40;;;;;;;9.95;8.80;;;;;;;-0.03;85.25;100771.20;643607;220;32587;-77
2021/03/08 04:34:08;;;;;;;11.47;8.13;;;;;;;-0.28;85.29;100779.52;654575;217;23731;-76
2021/03/08 04:36:35;;;;;;;12.73;9.20;;;;;;;-0.14;85.63;100783.62;637256;221;32790;-75
2021/03/08 04:39:04;;;;;;;10.48;8.90;;;;;;;-0.07;85.52;100780.34;642868;221;32783;-76
2021/03/08 04:41:31;;;;;;;12.20;9.40;;;;;;;-0.27;86.79;100786.28;659974;217;23745;-76
2021/03/08 04:43:59;;;;;;;10.90;9.70;;;;;;;-0.27;86.32;100782.45;655301;216;33258;-75
2021/03/08 04:46:27;;;;;;;12.45;9.73;;;;;;;-0.33;86.46;100789.91;651457;217;43635;-75
2021/03/08 04:48:55;;;;;;;11.60;9.00;;;;;;;-0.43;86.87;100784.77;640201;221;24834;-76
2021/03/08 04:51:23;;;;;;;12.23;9.80;;;;;;;-0.14;85.75;100786.17;635240;222;32751;-76
2021/03/08 04:53:51;;;;;;;13.30;9.50;;;;;;;0.09;84.98;100777.98;632730;221;32724;-75
2021/03/08 04:56:19;;;;;;;14.83;10.50;;;;;;;0.20;83.87;100779.19;650141;216;32613;-75
2021/03/08 04:58:47;;;;;;;10.77;8.90;;;;;;;-0.40;86.21;100784.67;653085;217;23754;-75
2021/03/08 05:01:15;;;;;;;13.45;9.10;;;;;;;-0.31;85.60;100783.45;634503;221;32712;-76
2021/03/08 05:03:42;;;;;;;13.47;8.57;;;;;;;-0.58;86.50;100790.93;646650;221;23873;-77
2021/03/08 05:06:10;;;;;;;12.03;9.60;;;;;;;-0.37;86.59;100794.77;637184;221;32814;-75
2021/03/08 05:08:38;;;;;;;13.95;9.78;;;;;;;-0.26;85.66;100794.34;653481;216;32801;-76
2021/03/08 05:11:06;;;;;;;13.77;9.20;;;;;;;-0.64;86.95;100794.56;653291;217;31216;-76
2021/03/08 05:13:34;;;;;;;11.88;9.60;;;;;;;-0.34;86.84;100796.35;635598;221;32741;-75
2021/03/08 05:16:02;;;;;;;10.77;8.67;;;;;;;-0.58;87.73;100796.04;653279;217;23780;-75
2021/03/08 05:18:30;;;;;;;13.35;9.68;;;;;;;-0.31;87.32;100797.05;635533;221;32859;-75
2021/03/08 05:20:59;;;;;;;15.60;9.50;;;;;;;-0.62;88.13;100797.44;652528;217;23758;-75
2021/03/08 05:23:27;;;;;;;13.53;9.50;;;;;;;-0.37;87.83;100793.48;650389;217;32605;-75
2021/03/08 05:25:55;;;;;;;16.17;9.50;;;;;;;-0.54;87.21;100787.39;654197;217;23760;-76
2021/03/08 05:28:22;;;;;;;15.88;10.48;;;;;;;-0.37;86.43;100791.38;649880;217;32579;-76
2021/03/08 05:30:52;;;;;;;14.80;9.17;;;;;;;-0.47;86.48;100784.96;639082;220;23821;-76
2021/03/08 05:33:21;;;;;;;14.45;9.85;;;;;;;-0.25;86.40;100791.33;646313;217;32908;-76
2021/03/08 05:35:50;;;;;;;13.05;10.40;;;;;;;-0.11;85.67;100783.48;653868;216;32598;-75
2021/03/08 05:38:17;;;;;;;14.13;9.33;;;;;;;-0.43;86.26;100787.33;645577;220;23765;-76
2021/03/08 05:40:46;;;;;;;13.03;10.25;;;;;;;-0.19;85.84;100795.73;641278;220;33070;-75
2021/03/08 05:43:14;;;;;;;11.60;8.97;;;;;;;-0.52;85.94;100794.54;656004;216;23773;-76
2021/03/08 05:45:44;;;;;;;12.63;10.00;;;;;;;-0.27;85.34;100797.78;652036;216;32632;-76
2021/03/08 05:48:53;;;;;;;13.48;10.28;;;;;;;-0.40;86.19;100796.61;634358;221;43506;-76
2021/03/08 05:51:31;;;;;;;13.20;9.83;;;;;;;-0.28;85.54;100805.07;643773;217;32616;-75
2021/03/08 05:54:28;;;;;;;13.00;9.10;;;;;;;-0.60;86.08;100803.77;645024;220;24853;-75
2021/03/08 05:57:04;;;;;;;14.40;10.35;;;;;;;-0.50;86.85;100815.30;647979;217;32571;-75
2021/03/08 05:59:43;;;;;;;12.80;9.53;;;;;;;-0.68;87.20;100814.74;640573;221;23809;-76
2021/03/08 06:02:27;;;;;;;13.48;10.78;;;;;;;-0.47;87.22;100822.83;654749;217;32609;-75
2021/03/08 06:05:04;;;;;;;14.43;11.00;;;;;;;-0.47;87.15;100813.06;651119;216;32632;-75
2021/03/08 06:07:43;;;;;;;13.37;8.40;;;;;;;-0.70;87.53;100830.13;646629;221;24885;-75
2021/03/08 06:10:12;;;;;;;14.50;11.20;;;;;;;-0.52;87.76;100826.02;632680;221;32750;-75
2021/03/08 06:12:39;;;;;;;14.23;10.45;;;;;;;-0.49;87.91;100837.84;645966;217;32870;-75
2021/03/08 06:15:08;;;;;;;13.90;11.00;;;;;;;-0.46;87.62;100836.44;642137;221;32741;-76
2021/03/08 06:17:36;;;;;;;13.07;9.07;;;;;;;-0.56;88.04;100830.88;638202;222;27971;-75
2021/03/08 06:20:05;;;;;;;14.55;10.40;;;;;;;-0.53;87.37;100833.30;643061;221;32703;-75
2021/03/08 06:22:33;;;;;;;13.65;10.60;;;;;;;-0.37;87.18;100834.81;639250;221;32744;-75
2021/03/08 06:25:00;;;;;;;13.63;9.17;;;;;;;-0.50;87.29;100831.07;646513;221;23831;-75
2021/03/08 06:27:28;;;;;;;14.73;11.33;;;;;;;-0.33;87.11;100832.52;640456;221;32720;-75
2021/03/08 06:29:57;;;;;;;14.77;9.67;;;;;;;-0.32;86.62;100823.50;658107;217;23770;-75
2021/03/08 06:32:25;;;;;;;14.70;10.58;;;;;;;0.09;85.75;100832.95;635731;221;32827;-76
2021/03/08 06:34:53;;;;;;;16.63;10.83;;;;;;;-0.36;86.90;100840.30;639904;221;23762;-76
2021/03/08 06:37:21;;;;;;;16.15;12.00;;;;;;;-0.05;86.25;100841.19;637507;220;32814;-76
2021/03/08 06:39:49;;;;;;;16.45;12.03;;;;;;;-0.22;86.58;100845.70;648471;216;32589;-75
2021/03/08 06:42:17;;;;;;;14.53;10.60;;;;;;;-0.41;88.08;100860.11;640975;221;25913;-75
2021/03/08 06:44:46;;;;;;;16.48;11.83;;;;;;;-0.09;86.35;100853.72;656744;216;32630;-75
2021/03/08 06:47:14;;;;;;;13.20;10.43;;;;;;;-0.30;87.40;100857.94;652370;216;23714;-75
2021/03/08 06:49:42;;;;;;;14.25;11.95;;;;;;;-0.13;86.93;100863.23;652413;216;33014;-75
2021/03/08 06:52:10;;;;;;;14.70;11.60;;;;;;;-0.25;87.24;100870.11;641823;221;23762;-76
2021/03/08 06:54:38;;;;;;;16.67;10.37;;;;;;;-0.29;87.52;100872.38;645351;220;24874;-75
2021/03/08 06:57:24;;;;;;;16.70;11.60;;;;;;;0.02;86.62;100869.91;645446;216;32583;-75
2021/03/08 06:59:53;;;;;;;18.70;11.67;;;;;;;-0.16;88.18;100882.95;655584;217;23727;-76
2021/03/08 07:02:21;;;;;;;15.95;12.40;;;;;;;0.22;87.30;100877.59;645048;221;32591;-75
2021/03/08 07:04:49;;;;;;;14.10;10.00;;;;;;;0.10;87.20;100874.24;653560;215;24195;-75
2021/03/08 07:07:17;;;;;;;17.70;12.60;;;;;;;0.45;86.35;100863.40;649953;217;32813;-75
2021/03/08 07:09:49;;;;;;;15.70;11.50;;;;;;;0.32;86.09;100863.98;642852;221;26908;-76
2021/03/08 07:12:17;;;;;;;15.57;11.27;;;;;;;0.22;86.33;100866.08;657585;217;24884;-76
2021/03/08 07:14:45;;;;;;;18.80;12.80;;;;;;;0.44;85.60;100860.91;637910;221;32755;-75
2021/03/08 07:17:33;;;;;;;16.02;13.22;;;;;;;0.52;84.49;100858.39;636810;221;32930;-75
2021/03/08 07:20:01;;;;;;;19.87;11.93;;;;;;;0.45;85.08;100863.84;646591;220;23807;-75
2021/03/08 07:22:37;;;;;;;13.80;10.50;;;;;;;0.52;85.60;100868.63;655584;217;24835;-74
2021/03/08 07:25:07;;;;;;;18.85;13.08;;;;;;;0.83;85.19;100868.58;646397;217;32600;-75
2021/03/08 07:27:41;;;;;;;19.40;12.90;;;;;;;0.76;84.40;100865.92;657170;217;23736;-75
2021/03/08 07:30:10;;;;;;;13.77;10.37;;;;;;;0.74;83.88;100871.56;651405;217;25053;-75
2021/03/08 07:32:40;;;;;;;17.98;13.08;;;;;;;0.94;84.74;100874.52;638367;220;32915;-75
2021/03/08 07:35:10;;;;;;;17.35;13.38;;;;;;;0.98;83.75;100867.91;632623;222;32771;-75
2021/03/08 07:37:45;;;;;;;17.23;11.90;;;;;;;0.89;83.86;100875.56;657536;217;23734;-74
2021/03/08 07:40:22;;;;;;;16.37;13.10;;;;;;;0.99;84.24;100874.72;637041;220;32740;-75
2021/03/08 07:42:49;;;;;;;16.47;11.70;;;;;;;1.01;84.28;100872.91;644264;220;23820;-75
2021/03/08 07:45:18;;;;;;;16.23;11.40;;;;;;;1.22;83.56;100877.97;641481;222;24890;-75
2021/03/08 07:47:46;;;;;;;13.93;11.37;;;;;;;1.22;83.21;100874.13;657371;217;24936;-75
2021/03/08 07:50:25;;;;;;;17.25;13.75;;;;;;;1.48;84.40;100878.89;636064;221;32742;-75
2021/03/08 07:52:55;;;;;;;14.33;12.20;;;;;;;1.48;82.98;100880.17;641988;220;23749;-75
2021/03/08 07:55:28;;;;;;;20.88;14.63;;;;;;;1.52;82.50;100874.45;637602;221;33005;-75
2021/03/08 07:57:56;;;;;;;24.00;15.10;;;;;;;1.56;83.07;100878.09;660718;216;24764;-75
2021/03/08 08:00:25;;;;;;;21.37;16.60;;;;;;;1.91;81.92;100871.73;656118;216;32550;-75
2021/03/08 08:02:53;;;;;;;23.57;18.50;;;;;;;1.76;81.46;100869.45;652734;216;23734;-75
2021/03/08 08:05:21;;;;;;;25.40;19.52;;;;;;;1.95;80.50;100866.38;636567;221;32736;-74
2021/03/08 08:07:48;;;;;;;26.47;20.00;;;;;;;2.04;80.84;100870.25;661796;216;23729;-75
2021/03/08 08:10:17;;;;;;;26.27;18.90;;;;;;;1.98;80.82;100865.42;653174;217;24836;-74
2021/03/08 08:12:45;;;;;;;25.25;19.48;;;;;;;2.24;80.46;100865.41;646722;216;32519;-75
2021/03/08 08:15:13;;;;;;;23.20;17.83;;;;;;;2.12;79.90;100857.89;655658;216;23724;-75
2021/03/08 08:17:41;;;;;;;26.52;18.20;;;;;;;2.37;80.56;100863.89;643674;221;32565;-75
2021/03/08 08:20:10;;;;;;;23.57;16.87;;;;;;;2.44;79.77;100869.56;653692;217;23720;-74
2021/03/08 08:22:38;;;;;;;21.95;17.85;;;;;;;2.47;79.02;100870.69;647421;216;32595;-75
2021/03/08 08:25:06;;;;;;;22.57;17.47;;;;;;;2.41;79.16;100864.14;642535;221;23757;-75
2021/03/08 08:27:35;;;;;;;21.87;17.20;;;;;;;2.53;78.99;100857.53;654811;217;25030;-75
2021/03/08 08:30:04;;;;;;;22.98;18.30;;;;;;;2.52;77.58;100857.16;636764;221;32951;-75
2021/03/08 08:32:48;;;;;;;24.20;18.35;;;;;;;2.69;77.45;100852.02;641113;221;32653;-75
2021/03/08 08:35:18;;;;;;;23.40;18.67;;;;;;;2.87;78.65;100852.78;644440;220;23696;-75
2021/03/08 08:37:52;;;;;;;23.00;16.90;;;;;;;2.91;76.70;100844.00;639415;221;24890;-75
2021/03/08 08:40:20;;;;;;;20.20;16.33;;;;;;;3.15;77.22;100848.30;648035;215;24840;-75
2021/03/08 08:42:48;;;;;;;23.50;18.70;;;;;;;3.26;75.35;100836.55;639552;220;33534;-75
2021/03/08 08:45:27;;;;;;;23.83;18.80;;;;;;;3.30;75.32;100833.34;631720;221;32736;-75
2021/03/08 08:48:04;;;;;;;24.90;16.20;;;;;;;3.35;74.82;100829.23;638501;221;24091;-75
2021/03/08 08:50:43;;;;;;;22.83;17.67;;;;;;;3.49;74.82;100836.55;647175;221;24922;-75
2021/03/08 08:53:11;;;;;;;21.83;15.67;;;;;;;3.64;74.55;100832.30;657557;217;24831;-74
2021/03/08 08:55:47;;;;;;;18.60;13.97;;;;;;;3.57;73.92;100829.72;646585;221;24847;-75
2021/03/08 08:58:21;;;;;;;15.60;12.23;;;;;;;3.59;73.16;100824.02;638752;221;24883;-75
2021/03/08 09:01:00;;;;;;;16.37;11.33;;;;;;;3.67;73.29;100829.58;640894;221;24887;-75
2021/03/08 09:03:45;;;;;;;18.40;13.50;;;;;;;3.96;72.02;100825.36;652783;214;32593;-75
2021/03/08 09:06:38;;;;;;;16.97;11.50;;;;;;;4.08;72.85;100823.37;661691;216;23773;-75
2021/03/08 09:09:06;;;;;;;16.90;10.40;;;;;;;4.39;73.25;100825.44;639191;220;24889;-75
2021/03/08 09:11:42;;;;;;;16.10;9.63;;;;;;;4.38;72.00;100818.17;655141;216;24827;-75
2021/03/08 09:14:33;;;;;;;12.03;8.63;;;;;;;4.30;71.05;100814.39;643157;221;24892;-75
2021/03/08 09:17:22;;;;;;;12.43;8.40;;;;;;;4.37;71.52;100807.97;640971;222;24890;-75
2021/03/08 09:19:51;;;;;;;11.40;8.90;;;;;;;4.34;71.56;100804.27;639439;222;27035;-75
2021/03/08 09:22:31;;;;;;;16.60;9.43;;;;;;;4.53;70.25;100813.86;658970;216;24832;-75
2021/03/08 09:24:59;;;;;;;11.23;8.83;;;;;;;4.92;71.12;100813.17;660457;216;24827;-75
2021/03/08 09:30:04;;;;;;;12.67;8.40;;;;;;;5.12;69.92;100806.80;646892;217;25490;-76
2021/03/08 09:32:32;;;;;;;11.43;8.83;;;;;;;5.34;69.66;100804.98;637367;221;24954;-75
2021/03/08 09:35:01;;;;;;;10.77;7.67;;;;;;;5.44;67.82;100802.19;647180;221;24832;-76
2021/03/08 09:37:30;;;;;;;10.63;8.23;;;;;;;5.82;68.55;100810.52;637162;224;24947;-75
2021/03/08 09:39:58;;;;;;;11.03;7.80;;;;;;;5.56;65.04;100794.14;648318;221;24950;-75
2021/03/08 09:42:26;;;;;;;10.20;7.27;;;;;;;5.10;66.29;100789.78;637553;225;24909;-76
2021/03/08 09:44:53;;;;;;;10.10;7.50;;;;;;;5.47;66.39;100783.94;632757;220;28094;-75
2021/03/08 09:47:22;;;;;;;8.57;6.40;;;;;;;5.84;64.39;100784.97;637338;225;25315;-75
2021/03/08 09:49:50;;;;;;;9.90;7.33;;;;;;;5.88;64.27;100779.95;636797;223;24837;-76
2021/03/08 09:52:30;;;;;;;10.30;7.50;;;;;;;5.96;65.17;100779.49;647457;221;31189;-75
2021/03/08 09:54:58;;;;;;;12.60;8.47;;;;;;;6.18;65.69;100773.24;649377;221;28345;-75
2021/03/08 09:57:30;;;;;;;10.87;6.57;;;;;;;6.04;64.55;100766.06;636891;225;24919;-75
2021/03/08 09:59:58;;;;;;;10.33;7.40;;;;;;;6.25;65.15;100761.59;634140;221;24866;-75
2021/03/08 10:02:27;;;;;;;10.97;7.93;;;;;;;6.33;64.47;100763.63;649319;220;24790;-75
2021/03/08 10:04:55;;;;;;;10.90;6.90;;;;;;;6.04;64.46;100760.89;648171;220;27000;-75
2021/03/08 10:07:23;;;;;;;9.20;6.60;;;;;;;6.05;64.13;100758.67;638182;225;24846;-75
2021/03/08 10:10:08;;;;;;;8.67;6.70;;;;;;;6.19;64.05;100761.16;640586;221;24871;-75
2021/03/08 10:12:36;;;;;;;10.70;6.00;;;;;;;6.34;64.80;100760.14;635868;225;24857;-75
2021/03/08 10:15:05;;;;;;;9.33;6.50;;;;;;;6.33;63.35;100758.47;635892;225;24889;-75
2021/03/08 10:17:32;;;;;;;9.93;7.33;;;;;;;6.44;63.28;100758.56;634263;225;24868;-75
2021/03/08 10:20:00;;;;;;;11.40;6.93;;;;;;;6.36;62.47;100760.86;643668;221;24876;-75
2021/03/08 10:22:34;;;;;;;8.10;6.30;;;;;;;6.53;62.30;100752.77;635019;225;24923;-75
2021/03/08 10:25:02;;;;;;;8.30;6.80;;;;;;;6.98;61.94;100753.07;633669;225;24892;-75
2021/03/08 10:27:30;;;;;;;10.27;6.30;;;;;;;6.97;62.17;100750.13;648113;220;24839;-75
2021/03/08 10:29:58;;;;;;;8.45;5.92;;;;;;;6.85;59.65;100746.64;630179;224;33492;-75
2021/03/08 10:32:26;;;;;;;8.10;5.77;;;;;;;6.99;62.35;100739.20;647086;221;23686;-76
2021/03/08 10:34:54;;;;;;;7.77;5.27;;;;;;;7.26;62.49;100744.63;636572;225;24845;-75
2021/03/08 10:37:22;;;;;;;9.07;5.93;;;;;;;6.80;61.08;100738.40;647718;221;24774;-75
2021/03/08 10:39:51;;;;;;;7.10;5.43;;;;;;;6.90;61.42;100739.88;636280;224;24840;-76
2021/03/08 10:42:21;;;;;;;7.77;5.30;;;;;;;6.98;60.48;100741.44;650434;221;24799;-75
2021/03/08 10:44:50;;;;;;;7.90;5.90;;;;;;;7.30;62.06;100731.83;632919;224;32522;-75
2021/03/08 10:47:19;;;;;;;7.37;5.90;;;;;;;7.27;61.65;100732.05;638268;223;23724;-76
2021/03/08 10:49:48;;;;;;;8.13;5.60;;;;;;;7.29;59.48;100728.88;639216;224;24831;-75
2021/03/08 10:52:16;;;;;;;7.13;5.03;;;;;;;7.36;59.22;100730.10;640092;219;25001;-75
2021/03/08 10:54:44;;;;;;;5.10;4.20;;;;;;;7.22;57.96;100721.23;638175;221;26995;-76
2021/03/08 10:57:12;;;;;;;9.43;6.87;;;;;;;7.33;60.40;100719.98;631771;225;24954;-76
2021/03/08 10:59:46;;;;;;;7.20;5.50;;;;;;;7.13;60.22;100714.47;631559;225;32642;-75
2021/03/08 11:02:16;;;;;;;6.80;5.27;;;;;;;6.79;60.10;100721.23;637941;225;23961;-75
2021/03/08 11:04:43;;;;;;;7.50;5.10;;;;;;;7.35;62.72;100726.69;628502;225;32816;-76
2021/03/08 11:07:11;;;;;;;10.43;5.67;;;;;;;7.14;62.15;100729.52;646764;221;23695;-75
2021/03/08 11:09:39;;;;;;;7.37;5.20;;;;;;;7.25;61.29;100721.00;637431;225;24827;-75
2021/03/08 11:12:15;;;;;;;7.60;6.07;;;;;;;7.12;60.90;100724.47;635141;225;24880;-76
2021/03/08 11:14:48;;;;;;;7.03;5.17;;;;;;;7.30;61.58;100716.30;650525;221;24801;-75
2021/03/08 11:17:16;;;;;;;8.63;5.40;;;;;;;7.06;60.40;100722.80;638577;225;24838;-76
2021/03/08 11:19:44;;;;;;;5.83;4.10;;;;;;;6.88;60.60;100726.67;641550;221;24869;-76
2021/03/08 11:22:12;;;;;;;6.00;5.00;;;;;;;6.85;62.55;100731.60;635923;225;24842;-75
2021/03/08 11:24:43;;;;;;;8.07;5.73;;;;;;;6.71;62.18;100727.88;637519;225;24849;-75
2021/03/08 11:27:14;;;;;;;6.20;5.00;;;;;;;6.53;61.90;100727.41;648319;216;24806;-76
2021/03/08 11:29:42;;;;;;;7.63;5.30;;;;;;;6.90;62.81;100732.13;626646;226;31411;-76
2021/03/08 11:32:10;;;;;;;7.20;5.57;;;;;;;6.94;62.11;100728.37;649142;220;24776;-76
2021/03/08 11:34:39;;;;;;;13.20;6.60;;;;;;;7.03;62.73;100725.11;638172;224;24924;-77
2021/03/08 11:37:09;;;;;;;8.73;5.60;;;;;;;7.18;62.72;100721.07;644589;220;26996;-76
2021/03/08 11:39:40;;;;;;;9.80;6.20;;;;;;;7.16;63.61;100722.48;648532;219;24819;-75